Time;durP1;ratioP1;P1;durP2;ratioP2;P2;SDS_P1;SDS_P2;PMS_P1;PMS_P2;Temp;Humidity;BMP_temperature;BMP_pressure;BME280_temperature;BME280_humidity;BME280_pressure;Samples;Min_cycle;Max_cycle;Signal;HPM_P1;HPM_P2
2022/09/05 00:00:08;;;;;;;14.60;3.05;;;17.90;99.90;;;;;;4958616;28;20046;-94
2022/09/05 00:02:41;;;;;;;7.53;3.03;;;17.80;99.90;;;;;;4973681;28;20143;-91
2022/09/05 00:05:34;;;;;;;9.13;3.08;;;17.80;99.90;;;;;;4957621;28;20034;-92
2022/09/05 00:07:59;;;;;;;10.77;3.05;;;17.80;99.90;;;;;;4973957;28;20388;-92
2022/09/05 00:10:28;;;;;;;16.42;3.05;;;17.80;99.90;;;;;;4956644;28;20033;-93
2022/09/05 00:12:58;;;;;;;10.32;3.03;;;17.80;99.90;;;;;;4956743;28;20073;-92
2022/09/05 00:16:02;;;;;;;11.05;3.40;;;17.80;99.90;;;;;;4973318;28;20026;-92
2022/09/05 00:19:03;;;;;;;10.75;3.38;;;17.90;99.90;;;;;;5049766;28;20032;-92
2022/09/05 00:22:08;;;;;;;12.02;3.05;;;17.90;99.90;;;;;;5039697;28;20040;-91
2022/09/05 00:25:07;;;;;;;9.38;2.78;;;17.90;99.90;;;;;;5031822;28;20026;-91
2022/09/05 00:27:50;;;;;;;7.75;3.15;;;17.80;99.90;;;;;;5053311;28;20104;-92
2022/09/05 00:30:20;;;;;;;9.88;2.92;;;17.80;99.90;;;;;;5035568;28;20040;-93
2022/09/05 00:33:06;;;;;;;7.32;2.80;;;17.80;99.90;;;;;;5054115;28;20049;-92
2022/09/05 00:36:01;;;;;;;11.30;3.33;;;17.80;99.90;;;;;;5052627;28;20040;-92
2022/09/05 00:38:28;;;;;;;9.80;3.38;;;17.80;99.90;;;;;;5033152;28;20029;-93
2022/09/05 00:41:00;;;;;;;9.57;3.28;;;17.70;99.90;;;;;;5035198;28;20033;-92
2022/09/05 00:43:30;;;;;;;12.52;2.78;;;17.60;99.90;;;;;;5034933;28;20028;-94
2022/09/05 00:46:09;;;;;;;11.20;3.17;;;17.60;99.90;;;;;;5054183;28;20482;-91
2022/09/05 00:49:16;;;;;;;6.90;2.75;;;17.60;99.90;;;;;;5035303;28;20122;-90
2022/09/05 00:52:11;;;;;;;8.77;2.75;;;17.60;99.90;;;;;;5030362;28;20064;-89
2022/09/05 00:55:05;;;;;;;9.65;4.05;;;17.60;99.90;;;;;;5043485;28;20013;-91
2022/09/05 00:58:14;;;;;;;8.52;2.63;;;17.60;99.90;;;;;;5052999;28;20094;-90
2022/09/05 01:00:52;;;;;;;10.40;3.20;;;17.60;99.90;;;;;;5038198;28;20123;-91
2022/09/05 01:03:33;;;;;;;8.52;3.78;;;17.60;99.90;;;;;;5050311;28;20005;-90
2022/09/05 01:06:25;;;;;;;8.23;2.78;;;17.50;99.90;;;;;;5068583;28;20515;-91
2022/09/05 01:09:08;;;;;;;15.10;3.35;;;17.60;99.90;;;;;;5055802;28;20048;-90
2022/09/05 01:11:49;;;;;;;11.40;3.53;;;17.60;99.90;;;;;;5051686;28;20020;-92
2022/09/05 01:14:38;;;;;;;18.98;4.00;;;17.50;99.90;;;;;;5052255;28;20482;-89
2022/09/05 01:17:30;;;;;;;20.75;4.55;;;17.50;99.90;;;;;;5051384;28;20395;-89
2022/09/05 01:20:11;;;;;;;19.30;5.25;;;17.30;99.90;;;;;;5047964;28;20053;-89
2022/09/05 01:22:49;;;;;;;11.20;3.70;;;17.20;99.90;;;;;;5048374;28;20112;-90
2022/09/05 01:25:39;;;;;;;15.50;4.95;;;17.10;99.90;;;;;;5048473;28;20053;-90
2022/09/05 01:28:32;;;;;;;7.50;3.20;;;17.00;99.90;;;;;;5050447;28;20100;-90
2022/09/05 01:31:49;;;;;;;10.23;3.45;;;16.90;99.90;;;;;;5049920;28;20462;-90
2022/09/05 01:34:36;;;;;;;8.48;3.70;;;16.80;99.90;;;;;;4941296;28;20097;-88
2022/09/05 01:37:12;;;;;;;9.48;3.58;;;16.70;99.90;;;;;;4941749;29;20509;-90
2022/09/05 01:40:14;;;;;;;12.93;3.72;;;16.60;99.90;;;;;;4924667;29;20048;-88
2022/09/05 01:42:47;;;;;;;9.32;3.13;;;16.60;99.90;;;;;;4942786;29;20039;-88
2022/09/05 01:45:50;;;;;;;7.95;3.58;;;16.50;99.90;;;;;;4943831;29;20139;-88
2022/09/05 01:48:51;;;;;;;9.32;3.30;;;16.50;99.90;;;;;;4942144;29;20023;-89
2022/09/05 01:51:22;;;;;;;14.20;3.30;;;16.40;99.90;;;;;;4887827;29;20486;-90
2022/09/05 01:54:04;;;;;;;7.18;2.58;;;16.40;99.90;;;;;;4902768;29;20025;-90
2022/09/05 01:56:55;;;;;;;10.00;3.17;;;16.30;99.90;;;;;;4912096;29;20047;-89
2022/09/05 01:59:42;;;;;;;7.72;3.15;;;16.30;99.90;;;;;;4914299;29;20058;-91
2022/09/05 02:02:22;;;;;;;9.23;3.40;;;16.20;99.90;;;;;;4917493;29;20072;-91
2022/09/05 02:05:12;;;;;;;8.55;2.67;;;16.20;99.90;;;;;;4956667;28;20034;-92
2022/09/05 02:07:58;;;;;;;6.50;2.80;;;16.20;99.90;;;;;;4994439;28;20519;-92
2022/09/05 02:10:56;;;;;;;5.18;2.85;;;16.20;99.90;;;;;;4994609;28;20034;-91
2022/09/05 02:13:41;;;;;;;8.40;2.90;;;16.10;99.90;;;;;;4978120;28;20045;-91
2022/09/05 02:16:30;;;;;;;6.97;3.38;;;16.10;99.90;;;;;;4979248;28;20038;-91
2022/09/05 02:19:08;;;;;;;7.72;3.63;;;16.10;99.90;;;;;;4978856;28;20041;-92
2022/09/05 02:21:37;;;;;;;7.43;3.28;;;16.00;99.90;;;;;;4980765;28;20089;-92
2022/09/05 02:24:25;;;;;;;6.45;2.92;;;16.00;99.90;;;;;;4989296;28;20030;-91
2022/09/05 02:26:58;;;;;;;10.93;3.63;;;16.00;99.90;;;;;;5008253;28;20034;-91
2022/09/05 02:30:09;;;;;;;8.35;3.85;;;15.90;99.90;;;;;;5063838;28;20127;-91
2022/09/05 02:32:34;;;;;;;;;;;16.00;99.90;;;;;;5062550;28;20037;-90
2022/09/05 02:35:38;;;;;;;9.60;3.30;;;15.90;99.90;;;;;;5042868;28;19917;-90
2022/09/05 02:38:10;;;;;;;7.88;3.35;;;15.90;99.90;;;;;;5041996;28;20112;-90
2022/09/05 02:40:40;;;;;;;7.88;3.60;;;15.90;99.90;;;;;;5043709;28;20553;-89
2022/09/05 02:43:18;;;;;;;7.63;3.22;;;15.90;99.90;;;;;;5064701;28;20025;-88
2022/09/05 02:45:56;;;;;;;10.00;3.53;;;15.90;99.90;;;;;;5058713;28;20028;-90
2022/09/05 02:48:30;;;;;;;9.65;4.00;;;15.90;99.90;;;;;;5054626;28;20017;-90
2022/09/05 02:51:14;;;;;;;12.90;3.90;;;15.90;99.90;;;;;;5055842;28;20390;-90
2022/09/05 02:53:45;;;;;;;8.38;3.92;;;15.90;99.90;;;;;;5039291;28;20044;-91
2022/09/05 02:56:45;;;;;;;8.05;3.92;;;15.90;99.90;;;;;;5039110;28;20029;-90
2022/09/05 02:59:32;;;;;;;6.78;3.97;;;15.90;99.90;;;;;;5054881;28;20037;-91
2022/09/05 03:02:19;;;;;;;9.05;4.25;;;15.90;99.90;;;;;;5037070;28;20027;-91
2022/09/05 03:04:54;;;;;;;11.45;4.57;;;15.90;99.90;;;;;;5037146;28;20060;-90
2022/09/05 03:07:34;;;;;;;9.38;4.40;;;15.90;99.90;;;;;;5054479;28;20103;-90
2022/09/05 03:10:21;;;;;;;6.55;3.97;;;15.90;99.90;;;;;;5055606;28;20238;-91
2022/09/05 03:13:20;;;;;;;8.30;4.72;;;15.90;99.90;;;;;;5055111;28;20032;-90
2022/09/05 03:16:13;;;;;;;9.85;4.60;;;15.90;99.90;;;;;;5037528;28;20028;-90
2022/09/05 03:19:01;;;;;;;7.22;3.88;;;15.80;99.90;;;;;;5054676;28;20079;-91
2022/09/05 03:21:48;;;;;;;8.70;4.03;;;15.80;99.90;;;;;;5054622;28;20021;-91
2022/09/05 03:24:47;;;;;;;7.45;4.05;;;15.80;99.90;;;;;;5037503;28;20045;-90
2022/09/05 03:27:22;;;;;;;10.23;4.45;;;15.80;99.90;;;;;;5057952;28;20028;-90
2022/09/05 03:30:10;;;;;;;6.75;3.83;;;15.80;99.90;;;;;;5036941;28;20020;-89
2022/09/05 03:33:07;;;;;;;6.43;4.15;;;15.80;99.90;;;;;;5036419;28;20025;-90
2022/09/05 03:35:42;;;;;;;7.43;3.58;;;15.70;99.90;;;;;;5034615;28;20068;-90
2022/09/05 03:38:13;;;;;;;11.02;4.60;;;15.70;99.90;;;;;;5034295;28;20045;-91
2022/09/05 03:40:51;;;;;;;10.25;4.90;;;15.70;99.90;;;;;;5016871;28;20056;-92
2022/09/05 03:43:24;;;;;;;6.93;4.53;;;15.60;99.90;;;;;;5016946;28;20030;-90
2022/09/05 03:46:09;;;;;;;7.82;4.60;;;15.70;99.90;;;;;;5033947;28;20044;-92
2022/09/05 03:49:02;;;;;;;10.57;5.00;;;15.70;99.90;;;;;;5034155;28;20029;-90
2022/09/05 03:51:54;;;;;;;10.95;5.03;;;15.70;99.90;;;;;;5034053;28;20028;-91
2022/09/05 03:54:42;;;;;;;8.05;5.30;;;15.70;99.90;;;;;;5016651;28;20027;-92
2022/09/05 03:57:26;;;;;;;10.93;5.07;;;15.70;99.90;;;;;;5034356;28;20037;-92
2022/09/05 04:00:08;;;;;;;10.32;5.20;;;15.70;99.90;;;;;;5033900;28;20048;-90
2022/09/05 04:02:46;;;;;;;9.85;5.60;;;15.70;99.90;;;;;;5033725;28;20048;-90
2022/09/05 04:05:18;;;;;;;13.13;5.85;;;15.70;99.90;;;;;;5034045;28;20033;-90
2022/09/05 04:07:57;;;;;;;11.52;5.95;;;15.70;99.90;;;;;;5016601;28;20032;-90
2022/09/05 04:10:44;;;;;;;9.90;5.97;;;15.70;99.90;;;;;;5033842;28;20055;-90
2022/09/05 04:13:24;;;;;;;8.90;5.35;;;15.70;99.90;;;;;;5016401;28;20561;-90
2022/09/05 04:16:05;;;;;;;8.45;5.50;;;15.70;99.90;;;;;;5033446;28;20037;-89
2022/09/05 04:18:41;;;;;;;12.82;6.32;;;15.70;99.90;;;;;;5016228;28;20056;-89
2022/09/05 04:21:27;;;;;;;11.05;6.13;;;15.70;99.90;;;;;;5034035;28;20033;-89
2022/09/05 04:24:11;;;;;;;11.35;5.85;;;15.60;99.90;;;;;;5016161;28;20506;-90
2022/09/05 04:26:37;;;;;;;11.40;5.53;;;15.60;99.90;;;;;;5037836;28;20078;-91
2022/09/05 04:29:18;;;;;;;11.85;6.03;;;15.70;99.90;;;;;;5029660;28;20092;-89
2022/09/05 04:32:01;;;;;;;10.05;5.28;;;15.70;99.90;;;;;;5037087;28;20041;-87
2022/09/05 04:34:45;;;;;;;9.05;6.55;;;15.60;99.90;;;;;;5029388;28;20398;-89
2022/09/05 04:37:35;;;;;;;16.55;6.93;;;15.70;99.90;;;;;;5035834;28;20037;-91
2022/09/05 04:40:38;;;;;;;13.40;7.72;;;15.70;99.90;;;;;;5052585;28;20543;-91
2022/09/05 04:43:42;;;;;;;15.30;6.70;;;15.70;99.90;;;;;;5034903;28;20060;-91
2022/09/05 04:46:21;;;;;;;10.77;7.18;;;15.70;99.90;;;;;;4991415;28;20554;-91
2022/09/05 04:49:17;;;;;;;12.05;6.95;;;15.70;99.90;;;;;;4991826;28;20121;-90
2022/09/05 04:51:54;;;;;;;15.30;7.80;;;15.70;99.90;;;;;;4991376;28;20559;-92
2022/09/05 04:54:38;;;;;;;14.02;7.55;;;15.70;99.90;;;;;;4994298;28;20134;-90
2022/09/05 04:57:07;;;;;;;14.35;8.57;;;15.70;99.90;;;;;;4995095;28;20113;-91
2022/09/05 05:00:05;;;;;;;13.55;8.40;;;15.70;99.90;;;;;;4993343;28;20034;-91
2022/09/05 05:02:36;;;;;;;13.23;7.97;;;15.70;99.90;;;;;;4971370;28;20170;-91
2022/09/05 05:05:06;;;;;;;13.90;7.95;;;15.70;99.90;;;;;;4991354;28;20053;-91
2022/09/05 05:07:49;;;;;;;15.55;8.50;;;15.60;99.90;;;;;;4991871;28;20043;-91
2022/09/05 05:10:34;;;;;;;23.90;9.52;;;15.60;99.90;;;;;;4976354;28;20498;-92
2022/09/05 05:13:16;;;;;;;17.58;8.70;;;15.60;99.90;;;;;;5002371;28;20039;-91
2022/09/05 05:15:51;;;;;;;14.10;8.70;;;15.60;99.90;;;;;;5006739;28;20034;-92
2022/09/05 05:18:25;;;;;;;14.98;9.88;;;15.60;99.90;;;;;;5005318;28;20038;-91
2022/09/05 05:20:51;;;;;;;13.35;10.38;;;15.60;99.90;;;;;;5036317;28;20045;-91
2022/09/05 05:23:20;;;;;;;18.05;10.05;;;15.70;99.90;;;;;;5063065;28;20021;-90
2022/09/05 05:25:53;;;;;;;14.70;10.18;;;15.70;99.90;;;;;;5040730;28;20029;-90
2022/09/05 05:28:55;;;;;;;15.38;9.20;;;15.70;99.90;;;;;;5038437;28;20036;-91
2022/09/05 05:31:33;;;;;;;16.88;9.82;;;15.70;99.90;;;;;;5019835;28;20025;-92
2022/09/05 05:34:12;;;;;;;18.63;9.77;;;15.70;99.90;;;;;;5057920;28;20048;-90
2022/09/05 05:36:49;;;;;;;13.30;7.50;;;15.70;99.90;;;;;;5039218;28;20056;-91
2022/09/05 05:39:29;;;;;;;14.77;9.73;;;15.80;99.90;;;;;;5039515;28;20128;-91
2022/09/05 05:41:56;;;;;;;13.83;8.90;;;15.70;99.90;;;;;;5058811;28;20020;-91
2022/09/05 05:44:35;;;;;;;11.90;8.98;;;15.70;99.90;;;;;;5040191;28;20035;-91
2022/09/05 05:47:14;;;;;;;13.00;8.43;;;15.70;99.90;;;;;;5057844;28;20017;-91
2022/09/05 05:50:01;;;;;;;19.33;9.05;;;15.70;99.90;;;;;;5057887;28;20021;-91
2022/09/05 05:52:39;;;;;;;13.13;8.13;;;15.70;99.90;;;;;;5055553;28;20053;-91
2022/09/05 05:55:30;;;;;;;14.18;6.28;;;15.70;99.90;;;;;;5056666;28;20569;-93
2022/09/05 05:58:01;;;;;;;6.70;4.60;;;15.70;99.90;;;;;;5056771;28;20025;-91
2022/09/05 06:00:50;;;;;;;13.52;6.07;;;15.70;99.90;;;;;;5057384;28;20047;-89
2022/09/05 06:04:16;;;;;;;16.10;8.38;;;15.70;99.90;;;;;;5008104;28;20041;-90
2022/09/05 06:07:06;;;;;;;8.15;5.38;;;15.80;99.90;;;;;;5055700;28;20021;-90
2022/09/05 06:09:58;;;;;;;12.40;7.43;;;15.80;99.90;;;;;;5057184;28;20078;-89
2022/09/05 06:13:01;;;;;;;13.05;7.80;;;15.80;99.90;;;;;;5056188;28;20033;-87
2022/09/05 06:15:45;;;;;;;7.07;5.63;;;15.90;99.90;;;;;;5058732;28;20102;-89
2022/09/05 06:18:29;;;;;;;9.45;6.18;;;15.90;99.90;;;;;;5038716;28;20044;-88
2022/09/05 06:21:19;;;;;;;12.98;7.60;;;15.90;99.90;;;;;;5038726;28;20055;-89
2022/09/05 06:24:11;;;;;;;9.68;6.78;;;16.00;99.90;;;;;;5056167;28;20025;-89
2022/09/05 06:26:55;;;;;;;9.45;7.20;;;16.00;99.90;;;;;;5055693;28;20024;-89
2022/09/05 06:29:35;;;;;;;12.35;7.78;;;16.00;99.90;;;;;;5055979;28;20027;-90
2022/09/05 06:32:33;;;;;;;;;;;16.00;99.90;;;;;;5056968;28;20029;-89
2022/09/05 06:35:23;;;;;;;14.68;8.43;;;16.00;99.90;;;;;;4998800;28;19929;-90
2022/09/05 06:38:07;;;;;;;16.17;9.25;;;16.00;99.90;;;;;;4997219;28;20038;-89
2022/09/05 06:41:03;;;;;;;15.18;8.90;;;16.10;99.90;;;;;;4994510;28;20030;-90
2022/09/05 06:43:40;;;;;;;16.45;8.80;;;16.10;99.90;;;;;;4993762;28;20074;-90
2022/09/05 06:46:06;;;;;;;16.20;8.05;;;16.00;99.90;;;;;;4994574;28;20065;-90
2022/09/05 06:48:43;;;;;;;14.35;8.38;;;16.00;99.90;;;;;;4990256;28;20022;-90
2022/09/05 06:51:39;;;;;;;12.40;7.38;;;16.00;99.90;;;;;;4983616;28;20046;-90
2022/09/05 06:54:38;;;;;;;14.82;7.38;;;16.00;99.90;;;;;;4986568;28;20022;-90
2022/09/05 06:57:29;;;;;;;13.55;7.63;;;16.00;99.90;;;;;;4992522;28;20037;-90
2022/09/05 07:00:05;;;;;;;14.30;6.68;;;16.00;99.90;;;;;;4993005;28;20054;-90
2022/09/05 07:02:55;;;;;;;13.02;6.50;;;16.00;99.90;;;;;;4991054;28;20030;-90
2022/09/05 07:05:23;;;;;;;16.02;7.15;;;16.10;99.90;;;;;;4987859;28;20035;-90
2022/09/05 07:07:53;;;;;;;10.38;6.32;;;16.20;99.90;;;;;;4991558;28;20042;-90
2022/09/05 07:10:26;;;;;;;15.30;7.30;;;16.20;99.90;;;;;;4999354;28;20029;-90
2022/09/05 07:13:02;;;;;;;16.95;7.88;;;16.10;99.90;;;;;;5054530;28;20035;-89
2022/09/05 07:15:51;;;;;;;18.05;7.97;;;16.10;99.90;;;;;;5036854;28;20029;-89
2022/09/05 07:18:36;;;;;;;14.88;8.30;;;16.10;99.90;;;;;;5036999;28;20025;-90
2022/09/05 07:21:16;;;;;;;15.10;7.13;;;16.10;99.90;;;;;;5052152;28;20331;-89
2022/09/05 07:23:54;;;;;;;12.40;6.88;;;16.10;99.90;;;;;;5054068;28;20103;-90
2022/09/05 07:26:22;;;;;;;17.00;7.65;;;16.10;99.90;;;;;;5053820;28;20099;-89
2022/09/05 07:28:53;;;;;;;13.68;7.82;;;16.10;99.90;;;;;;5036088;28;20024;-89
2022/09/05 07:31:24;;;;;;;;;;;16.10;99.90;;;;;;5037373;28;20032;-90
2022/09/05 07:34:04;;;;;;;18.95;8.75;;;16.10;99.90;;;;;;5053588;28;19970;-88
2022/09/05 07:36:37;;;;;;;11.65;7.80;;;16.10;99.90;;;;;;5054888;28;20029;-89
2022/09/05 07:39:04;;;;;;;13.23;7.03;;;16.10;99.90;;;;;;5036886;28;20041;-89
2022/09/05 07:41:33;;;;;;;19.75;7.57;;;16.10;99.90;;;;;;5037151;28;20025;-89
2022/09/05 07:44:12;;;;;;;14.23;6.78;;;16.10;99.90;;;;;;5054785;28;20051;-90
2022/09/05 07:46:39;;;;;;;13.77;7.25;;;16.10;99.90;;;;;;5040976;28;20029;-95
2022/09/05 07:49:13;;;;;;;16.90;7.65;;;16.10;99.90;;;;;;5039698;28;20035;-95
2022/09/05 07:51:49;;;;;;;11.73;7.00;;;16.20;99.90;;;;;;5040460;28;20116;-95
2022/09/05 07:54:22;;;;;;;12.55;6.07;;;16.20;99.90;;;;;;5043435;28;20033;-96
2022/09/05 07:56:58;;;;;;;13.15;6.93;;;16.20;99.90;;;;;;5051592;28;20013;-94
2022/09/05 07:59:29;;;;;;;13.95;6.57;;;16.30;99.90;;;;;;5057429;28;20037;-95
2022/09/05 08:01:57;;;;;;;15.20;7.63;;;16.30;99.90;;;;;;5054835;28;20081;-96
2022/09/05 08:04:32;;;;;;;14.05;5.95;;;16.40;99.90;;;;;;5044559;28;20033;-96
2022/09/05 08:07:09;;;;;;;11.38;4.18;;;16.40;99.90;;;;;;5043366;28;20486;-96
2022/09/05 08:09:44;;;;;;;17.40;5.78;;;16.50;99.90;;;;;;5042098;28;20052;-95
2022/09/05 08:12:22;;;;;;;12.32;5.00;;;16.60;99.90;;;;;;5055545;28;20037;-96
2022/09/05 08:15:03;;;;;;;10.60;5.25;;;16.60;99.90;;;;;;5053324;28;20025;-95
2022/09/05 08:17:29;;;;;;;;;;;16.70;99.90;;;;;;5050672;28;20060;-95
2022/09/05 08:20:20;;;;;;;14.35;5.80;;;16.80;99.90;;;;;;5067187;28;19917;-96
2022/09/05 08:22:55;;;;;;;;;;;16.80;99.90;;;;;;5048444;28;20057;-95
2022/09/05 08:25:29;;;;;;;11.18;5.18;;;16.90;99.90;;;;;;5026825;28;19908;-95
2022/09/05 08:28:08;;;;;;;13.38;6.40;;;16.90;99.90;;;;;;5047997;28;20037;-96
2022/09/05 08:30:43;;;;;;;10.80;6.38;;;16.90;99.90;;;;;;5043591;28;20052;-95
2022/09/05 08:33:33;;;;;;;12.82;5.57;;;16.90;99.90;;;;;;5045930;28;20029;-95
2022/09/05 08:36:27;;;;;;;15.00;7.30;;;16.90;99.90;;;;;;5044931;28;20486;-95
2022/09/05 08:38:53;;;;;;;10.32;5.80;;;17.00;99.90;;;;;;5050254;28;20025;-95
2022/09/05 08:42:02;;;;;;;20.52;7.07;;;17.00;99.90;;;;;;5051282;28;20029;-95
2022/09/05 08:44:40;;;;;;;13.82;6.35;;;17.10;99.90;;;;;;5044065;28;20023;-95
2022/09/05 08:47:30;;;;;;;16.92;8.45;;;17.10;99.90;;;;;;5044305;28;20115;-94
2022/09/05 08:50:34;;;;;;;14.85;6.82;;;17.10;99.90;;;;;;5044779;28;20040;-96
2022/09/05 08:53:20;;;;;;;12.68;6.13;;;17.20;99.90;;;;;;5047484;28;20028;-96
2022/09/05 08:56:16;;;;;;;15.02;5.20;;;17.20;99.90;;;;;;5049076;28;20059;-94
2022/09/05 08:59:06;;;;;;;9.88;4.07;;;17.30;99.90;;;;;;5017618;28;20041;-95
2022/09/05 09:01:47;;;;;;;8.80;3.40;;;17.30;99.90;;;;;;5046022;28;20102;-94
2022/09/05 09:04:31;;;;;;;;;;;17.30;99.90;;;;;;5047667;28;20120;-94
2022/09/05 09:07:21;;;;;;;9.75;3.90;;;17.50;99.90;;;;;;5044032;28;19912;-95
2022/09/05 09:10:24;;;;;;;7.50;3.53;;;17.60;99.90;;;;;;5040264;28;20029;-94
2022/09/05 09:13:11;;;;;;;11.95;3.45;;;17.80;99.90;;;;;;5013506;28;20029;-95
2022/09/05 09:15:52;;;;;;;10.20;3.60;;;17.90;99.90;;;;;;5038798;28;20079;-95
2022/09/05 09:18:20;;;;;;;7.22;3.50;;;18.00;99.90;;;;;;5037736;28;20124;-93
2022/09/05 09:21:11;;;;;;;7.85;3.83;;;18.00;99.90;;;;;;5038415;28;20091;-94
2022/09/05 09:23:48;;;;;;;11.02;3.47;;;18.10;99.90;;;;;;5038121;28;20039;-94
2022/09/05 09:26:17;;;;;;;9.70;3.28;;;18.00;99.90;;;;;;5038773;28;20029;-94
2022/09/05 09:28:54;;;;;;;11.32;4.07;;;18.10;99.90;;;;;;5038263;28;20048;-91
2022/09/05 09:31:38;;;;;;;13.13;5.28;;;18.30;99.90;;;;;;5035255;28;20111;-90
2022/09/05 09:34:21;;;;;;;8.38;4.28;;;18.50;99.90;;;;;;5051484;28;20151;-92
2022/09/05 09:37:13;;;;;;;7.90;4.22;;;18.70;99.90;;;;;;5061291;28;20016;-90
2022/09/05 09:40:16;;;;;;;10.93;4.38;;;18.80;99.90;;;;;;5062602;28;20059;-90
2022/09/05 09:43:17;;;;;;;8.23;3.92;;;19.10;99.90;;;;;;5054629;28;20124;-90
2022/09/05 09:46:19;;;;;;;6.13;3.33;;;19.40;99.90;;;;;;5056420;28;20127;-91
2022/09/05 09:49:10;;;;;;;9.73;3.20;;;19.70;99.90;;;;;;5042069;28;20407;-90
2022/09/05 09:51:56;;;;;;;9.18;3.08;;;19.80;99.90;;;;;;5051738;28;20035;-92
2022/09/05 09:54:58;;;;;;;5.03;2.60;;;19.90;99.90;;;;;;5051717;28;20033;-90
2022/09/05 09:58:08;;;;;;;10.07;3.20;;;20.00;99.90;;;;;;5034772;28;20049;-91
2022/09/05 10:00:56;;;;;;;6.97;2.63;;;20.00;99.90;;;;;;5033939;28;20144;-90
2022/09/05 10:03:43;;;;;;;6.00;2.33;;;20.20;99.90;;;;;;5034439;28;20102;-91
2022/09/05 10:06:15;;;;;;;8.05;2.88;;;20.20;99.90;;;;;;5035778;28;20033;-90
2022/09/05 10:08:58;;;;;;;7.53;2.65;;;20.30;99.90;;;;;;5035584;28;20067;-90
2022/09/05 10:11:50;;;;;;;9.15;2.28;;;20.40;99.90;;;;;;5035172;28;20581;-90
2022/09/05 10:14:56;;;;;;;6.50;2.42;;;20.50;99.90;;;;;;5034965;28;20545;-91
2022/09/05 10:17:30;;;;;;;7.50;2.15;;;20.70;99.90;;;;;;5033221;28;20199;-91
2022/09/05 10:19:56;;;;;;;5.90;1.88;;;20.80;99.90;;;;;;5038453;28;20052;-91
2022/09/05 10:22:40;;;;;;;6.03;1.80;;;20.90;99.90;;;;;;5046011;28;20021;-91
2022/09/05 10:25:18;;;;;;;4.90;1.60;;;21.00;99.90;;;;;;5039718;28;20029;-90
2022/09/05 10:28:06;;;;;;;6.65;1.90;;;21.10;99.90;;;;;;5038682;28;20028;-90
2022/09/05 10:31:01;;;;;;;9.75;2.10;;;21.40;99.90;;;;;;5038616;28;20145;-90
2022/09/05 10:33:37;;;;;;;8.93;1.83;;;21.50;99.90;;;;;;5039492;28;20029;-90
2022/09/05 10:36:26;;;;;;;6.28;1.50;;;21.70;99.90;;;;;;5039690;28;20123;-91
2022/09/05 10:39:02;;;;;;;6.30;1.80;;;21.90;99.90;;;;;;5039857;28;20025;-90
2022/09/05 10:41:49;;;;;;;5.63;1.38;;;22.00;99.90;;;;;;5038822;28;20025;-91
2022/09/05 10:44:30;;;;;;;7.03;1.90;;;22.20;99.90;;;;;;5038367;28;20052;-90
2022/09/05 10:46:56;;;;;;;;;;;22.40;99.90;;;;;;5040282;28;20021;-90
2022/09/05 10:49:29;;;;;;;6.88;1.83;;;22.60;99.90;;;;;;5037839;28;19916;-91
2022/09/05 10:52:27;;;;;;;4.30;1.65;;;22.70;99.90;;;;;;5037641;28;20029;-93
2022/09/05 10:55:07;;;;;;;5.28;1.63;;;22.80;99.90;;;;;;4973811;28;20110;-91
2022/09/05 10:58:17;;;;;;;10.68;1.75;;;23.00;99.00;;;;;;4958050;28;20027;-90
2022/09/05 11:01:09;;;;;;;7.13;1.38;;;23.20;96.90;;;;;;4958633;28;20051;-90
2022/09/05 11:03:43;;;;;;;7.53;1.10;;;23.40;95.80;;;;;;4961244;28;20023;-90
2022/09/05 11:06:15;;;;;;;7.38;1.52;;;23.60;94.60;;;;;;4964825;28;20122;-91
2022/09/05 11:09:11;;;;;;;3.55;1.20;;;23.70;92.90;;;;;;4969203;28;20051;-91
2022/09/05 11:11:45;;;;;;;5.97;1.55;;;23.70;90.60;;;;;;4963588;28;20034;-91
2022/09/05 11:14:40;;;;;;;4.72;1.77;;;23.70;89.00;;;;;;4964831;28;20030;-90
2022/09/05 11:17:09;;;;;;;6.65;1.63;;;23.80;86.40;;;;;;4978242;28;20037;-90
2022/09/05 11:19:44;;;;;;;6.57;1.27;;;23.90;85.90;;;;;;4959783;28;20051;-92
2022/09/05 11:22:12;;;;;;;10.48;1.40;;;24.00;84.60;;;;;;4961495;28;20043;-91
2022/09/05 11:24:38;;;;;;;7.35;1.70;;;24.00;82.90;;;;;;4958819;28;20492;-90
2022/09/05 11:27:13;;;;;;;7.20;1.20;;;24.10;83.10;;;;;;4958413;28;20042;-89
2022/09/05 11:29:47;;;;;;;7.32;1.70;;;24.00;83.10;;;;;;4987367;28;20029;-89
2022/09/05 11:32:42;;;;;;;8.85;1.80;;;24.00;83.30;;;;;;5058472;28;20112;-90
2022/09/05 11:35:35;;;;;;;6.47;2.17;;;23.90;81.50;;;;;;4966934;28;20612;-90
2022/09/05 11:38:07;;;;;;;4.68;1.20;;;23.90;81.00;;;;;;5050130;28;20358;-90
2022/09/05 11:40:44;;;;;;;8.68;1.88;;;24.10;81.00;;;;;;5037115;28;20044;-92
2022/09/05 11:43:51;;;;;;;8.30;1.38;;;24.30;80.30;;;;;;5049987;28;20094;-91
2022/09/05 11:46:48;;;;;;;7.18;1.60;;;24.30;79.70;;;;;;5050580;28;20036;-90
2022/09/05 11:49:41;;;;;;;6.28;1.63;;;24.20;79.40;;;;;;5044286;28;20089;-91
2022/09/05 11:52:20;;;;;;;11.30;1.67;;;24.30;80.00;;;;;;5037239;28;20029;-90
2022/09/05 11:54:54;;;;;;;5.03;1.03;;;24.50;79.70;;;;;;5036520;28;20033;-92
2022/09/05 11:57:37;;;;;;;6.45;1.48;;;24.70;78.60;;;;;;5035885;28;20052;-90
2022/09/05 12:00:12;;;;;;;8.48;1.58;;;24.80;77.50;;;;;;5035980;28;20771;-92
2022/09/05 12:02:52;;;;;;;4.85;1.30;;;24.90;77.00;;;;;;5036191;28;20037;-91
2022/09/05 12:05:53;;;;;;;7.88;1.70;;;25.20;77.50;;;;;;5036152;28;20013;-91
2022/09/05 12:08:39;;;;;;;4.50;1.60;;;25.40;76.50;;;;;;5036866;28;20482;-91
2022/09/05 12:11:23;;;;;;;5.57;1.45;;;25.50;74.90;;;;;;5054067;28;20041;-91
2022/09/05 12:13:58;;;;;;;6.88;1.30;;;25.60;73.60;;;;;;5040231;28;20040;-91
2022/09/05 12:16:42;;;;;;;6.25;1.30;;;25.60;72.70;;;;;;5036967;28;20021;-90
2022/09/05 12:19:15;;;;;;;5.03;1.38;;;25.70;72.90;;;;;;5053763;28;20056;-90
2022/09/05 12:22:07;;;;;;;7.07;1.33;;;25.70;72.50;;;;;;5037790;28;20116;-90
2022/09/05 12:25:11;;;;;;;5.28;1.40;;;25.60;72.00;;;;;;5039575;28;20013;-90
2022/09/05 12:27:38;;;;;;;5.38;1.55;;;25.70;71.80;;;;;;5034591;28;20044;-92
2022/09/05 12:30:08;;;;;;;4.53;1.30;;;25.60;70.90;;;;;;5038622;28;20029;-91
2022/09/05 12:32:52;;;;;;;6.50;1.27;;;25.70;70.20;;;;;;5036097;28;20102;-91
2022/09/05 12:35:24;;;;;;;3.67;1.10;;;25.90;70.00;;;;;;5050596;28;20044;-92
2022/09/05 12:38:12;;;;;;;4.05;1.23;;;26.00;69.30;;;;;;5054345;28;20021;-94
2022/09/05 12:40:43;;;;;;;8.07;1.73;;;26.10;68.80;;;;;;5049728;28;20068;-92
2022/09/05 12:43:11;;;;;;;7.15;1.60;;;26.10;67.70;;;;;;5036417;28;20494;-89
2022/09/05 12:46:04;;;;;;;6.05;1.20;;;26.00;67.70;;;;;;5040747;28;20025;-91
2022/09/05 12:48:52;;;;;;;6.88;1.50;;;26.10;67.20;;;;;;5040315;28;20028;-90
2022/09/05 12:51:20;;;;;;;5.72;1.30;;;26.20;66.90;;;;;;5036799;28;20037;-91
2022/09/05 12:53:55;;;;;;;5.22;1.88;;;26.30;66.60;;;;;;5036384;28;20089;-91
2022/09/05 12:56:38;;;;;;;4.40;0.90;;;26.30;66.10;;;;;;5037359;28;20103;-93
2022/09/05 12:59:12;;;;;;;11.02;1.33;;;26.20;65.00;;;;;;5038399;28;20090;-91
2022/09/05 13:01:42;;;;;;;5.68;1.70;;;26.00;65.30;;;;;;5044788;28;20029;-91
2022/09/05 13:04:21;;;;;;;4.55;1.20;;;26.20;66.60;;;;;;5036684;28;20033;-91
2022/09/05 13:07:08;;;;;;;6.47;1.55;;;26.50;66.40;;;;;;5036409;28;20120;-94
2022/09/05 13:09:36;;;;;;;7.50;1.23;;;26.50;65.60;;;;;;5036313;28;20079;-92
2022/09/05 13:12:18;;;;;;;6.65;1.45;;;26.40;65.10;;;;;;5036681;28;20021;-92
2022/09/05 13:14:59;;;;;;;8.43;1.85;;;26.20;65.20;;;;;;5043935;28;20029;-90
2022/09/05 13:17:37;;;;;;;6.57;1.38;;;26.10;65.70;;;;;;5040625;28;20021;-92
2022/09/05 13:20:18;;;;;;;7.85;1.30;;;25.90;65.50;;;;;;5040099;28;20605;-92
2022/09/05 13:22:49;;;;;;;11.73;1.40;;;25.70;66.00;;;;;;5045592;28;20123;-93
2022/09/05 13:25:23;;;;;;;8.18;1.63;;;25.50;66.50;;;;;;5043680;28;20036;-93
2022/09/05 13:27:56;;;;;;;8.38;1.42;;;25.30;67.30;;;;;;5017359;28;20033;-92
2022/09/05 13:30:26;;;;;;;5.70;1.30;;;25.20;67.40;;;;;;5034117;28;20116;-92
2022/09/05 13:33:22;;;;;;;7.07;1.80;;;25.20;67.60;;;;;;5035523;28;20025;-92
2022/09/05 13:36:04;;;;;;;6.40;1.17;;;25.20;67.70;;;;;;5018647;28;20518;-92
2022/09/05 13:39:04;;;;;;;5.05;1.13;;;25.40;67.50;;;;;;5015142;28;20025;-92
2022/09/05 13:41:36;;;;;;;5.55;0.95;;;25.70;66.60;;;;;;4998978;28;20131;-91
2022/09/05 13:44:15;;;;;;;8.30;1.80;;;25.90;65.70;;;;;;5018111;28;20037;-91
2022/09/05 13:46:52;;;;;;;6.38;1.23;;;26.00;64.20;;;;;;5028136;28;20028;-93
2022/09/05 13:49:35;;;;;;;5.28;1.05;;;25.80;63.70;;;;;;5022914;28;20087;-93
2022/09/05 13:52:13;;;;;;;3.35;1.10;;;25.60;64.10;;;;;;5030872;28;20049;-93
2022/09/05 13:55:04;;;;;;;5.13;1.40;;;25.50;64.70;;;;;;5036088;28;20022;-92
2022/09/05 13:57:56;;;;;;;3.97;1.38;;;25.50;65.90;;;;;;5024712;28;20116;-93
2022/09/05 14:00:35;;;;;;;6.70;2.03;;;25.80;66.20;;;;;;5020048;28;20037;-93
2022/09/05 14:03:26;;;;;;;7.22;2.05;;;25.90;65.70;;;;;;5018958;28;20034;-91